sensor_id;sensor_type;location;lat;lon;timestamp;P1;durP1;ratioP1;P2;durP2;ratioP2
40611;SDS011;26317;44.894;20.286;2023-09-30T00:01:10;27.63;;;16.48;;
40611;SDS011;26317;44.894;20.286;2023-09-30T00:03:51;32.05;;;18.10;;
40611;SDS011;26317;44.894;20.286;2023-09-30T00:06:48;28.65;;;16.05;;
40611;SDS011;26317;44.894;20.286;2023-09-30T00:09:25;23.23;;;15.95;;
40611;SDS011;26317;44.894;20.286;2023-09-30T00:12:07;22.98;;;15.27;;
40611;SDS011;26317;44.894;20.286;2023-09-30T00:14:44;24.13;;;15.95;;
40611;SDS011;26317;44.894;20.286;2023-09-30T00:17:16;23.05;;;16.35;;
40611;SDS011;26317;44.894;20.286;2023-09-30T00:19:48;23.33;;;16.02;;
40611;SDS011;26317;44.894;20.286;2023-09-30T00:24:58;23.75;;;14.82;;
40611;SDS011;26317;44.894;20.286;2023-09-30T00:27:38;23.05;;;15.68;;
40611;SDS011;26317;44.894;20.286;2023-09-30T00:30:16;24.13;;;15.90;;
40611;SDS011;26317;44.894;20.286;2023-09-30T00:33:09;22.83;;;14.48;;
40611;SDS011;26317;44.894;20.286;2023-09-30T00:35:46;25.55;;;15.80;;
40611;SDS011;26317;44.894;20.286;2023-09-30T00:38:21;20.20;;;15.35;;
40611;SDS011;26317;44.894;20.286;2023-09-30T00:40:53;25.95;;;16.35;;
40611;SDS011;26317;44.894;20.286;2023-09-30T00:43:37;31.35;;;17.13;;
40611;SDS011;26317;44.894;20.286;2023-09-30T00:46:14;21.33;;;16.65;;
40611;SDS011;26317;44.894;20.286;2023-09-30T00:49:03;26.80;;;17.63;;
40611;SDS011;26317;44.894;20.286;2023-09-30T00:51:51;27.40;;;17.10;;
40611;SDS011;26317;44.894;20.286;2023-09-30T00:54:29;22.73;;;17.02;;
40611;SDS011;26317;44.894;20.286;2023-09-30T00:57:05;25.75;;;18.45;;
40611;SDS011;26317;44.894;20.286;2023-09-30T00:59:49;24.50;;;16.98;;
40611;SDS011;26317;44.894;20.286;2023-09-30T01:02:24;27.58;;;17.77;;
40611;SDS011;26317;44.894;20.286;2023-09-30T01:05:05;34.25;;;18.33;;
40611;SDS011;26317;44.894;20.286;2023-09-30T01:07:42;36.22;;;18.42;;
40611;SDS011;26317;44.894;20.286;2023-09-30T01:10:26;34.17;;;18.45;;
40611;SDS011;26317;44.894;20.286;2023-09-30T01:13:04;26.10;;;17.77;;
40611;SDS011;26317;44.894;20.286;2023-09-30T01:15:53;25.10;;;18.23;;
40611;SDS011;26317;44.894;20.286;2023-09-30T01:18:41;22.17;;;16.55;;
40611;SDS011;26317;44.894;20.286;2023-09-30T01:21:26;23.08;;;16.50;;
40611;SDS011;26317;44.894;20.286;2023-09-30T01:24:18;26.02;;;16.95;;
40611;SDS011;26317;44.894;20.286;2023-09-30T01:26:56;29.15;;;17.38;;
40611;SDS011;26317;44.894;20.286;2023-09-30T01:29:57;27.70;;;18.90;;
40611;SDS011;26317;44.894;20.286;2023-09-30T01:32:36;33.55;;;19.23;;
40611;SDS011;26317;44.894;20.286;2023-09-30T01:35:20;27.85;;;19.00;;
40611;SDS011;26317;44.894;20.286;2023-09-30T01:37:58;34.58;;;17.95;;
40611;SDS011;26317;44.894;20.286;2023-09-30T01:40:48;28.83;;;18.33;;
40611;SDS011;26317;44.894;20.286;2023-09-30T01:43:31;23.83;;;17.33;;
40611;SDS011;26317;44.894;20.286;2023-09-30T01:46:09;22.70;;;16.80;;
40611;SDS011;26317;44.894;20.286;2023-09-30T01:48:43;27.13;;;18.48;;
40611;SDS011;26317;44.894;20.286;2023-09-30T01:51:24;23.88;;;17.35;;
40611;SDS011;26317;44.894;20.286;2023-09-30T01:54:00;27.50;;;18.45;;
40611;SDS011;26317;44.894;20.286;2023-09-30T01:56:45;25.33;;;18.50;;
40611;SDS011;26317;44.894;20.286;2023-09-30T01:59:27;27.70;;;16.05;;
40611;SDS011;26317;44.894;20.286;2023-09-30T02:02:05;32.25;;;16.48;;
40611;SDS011;26317;44.894;20.286;2023-09-30T02:04:52;23.10;;;16.00;;
40611;SDS011;26317;44.894;20.286;2023-09-30T02:07:31;24.92;;;15.73;;
40611;SDS011;26317;44.894;20.286;2023-09-30T02:10:10;22.23;;;15.50;;
40611;SDS011;26317;44.894;20.286;2023-09-30T02:13:00;23.38;;;15.32;;
40611;SDS011;26317;44.894;20.286;2023-09-30T02:15:56;27.23;;;15.73;;
40611;SDS011;26317;44.894;20.286;2023-09-30T02:18:33;24.15;;;17.10;;
40611;SDS011;26317;44.894;20.286;2023-09-30T02:21:14;24.83;;;18.90;;
40611;SDS011;26317;44.894;20.286;2023-09-30T02:24:01;28.55;;;17.58;;
40611;SDS011;26317;44.894;20.286;2023-09-30T02:26:41;26.85;;;19.30;;
40611;SDS011;26317;44.894;20.286;2023-09-30T02:29:41;38.17;;;22.08;;
40611;SDS011;26317;44.894;20.286;2023-09-30T02:32:14;22.48;;;17.10;;
40611;SDS011;26317;44.894;20.286;2023-09-30T02:34:46;23.60;;;16.42;;
40611;SDS011;26317;44.894;20.286;2023-09-30T02:37:24;24.42;;;16.92;;
40611;SDS011;26317;44.894;20.286;2023-09-30T02:40:05;29.25;;;16.55;;
40611;SDS011;26317;44.894;20.286;2023-09-30T02:42:42;21.23;;;15.95;;
40611;SDS011;26317;44.894;20.286;2023-09-30T02:45:29;23.35;;;16.60;;
40611;SDS011;26317;44.894;20.286;2023-09-30T02:48:05;25.83;;;16.45;;
40611;SDS011;26317;44.894;20.286;2023-09-30T02:50:42;25.90;;;16.25;;
40611;SDS011;26317;44.894;20.286;2023-09-30T02:53:21;20.13;;;15.05;;
40611;SDS011;26317;44.894;20.286;2023-09-30T02:55:55;24.02;;;17.08;;
40611;SDS011;26317;44.894;20.286;2023-09-30T02:58:46;26.00;;;16.58;;
40611;SDS011;26317;44.894;20.286;2023-09-30T03:01:39;21.10;;;15.65;;
40611;SDS011;26317;44.894;20.286;2023-09-30T03:04:20;21.88;;;16.63;;
40611;SDS011;26317;44.894;20.286;2023-09-30T03:06:59;21.77;;;15.95;;
40611;SDS011;26317;44.894;20.286;2023-09-30T03:09:46;20.85;;;15.43;;
40611;SDS011;26317;44.894;20.286;2023-09-30T03:12:18;20.00;;;15.40;;
40611;SDS011;26317;44.894;20.286;2023-09-30T03:17:45;27.80;;;16.00;;
40611;SDS011;26317;44.894;20.286;2023-09-30T03:20:23;24.92;;;16.67;;
40611;SDS011;26317;44.894;20.286;2023-09-30T03:23:13;26.33;;;17.05;;
40611;SDS011;26317;44.894;20.286;2023-09-30T03:26:00;23.38;;;15.73;;
40611;SDS011;26317;44.894;20.286;2023-09-30T03:28:39;23.95;;;15.55;;
40611;SDS011;26317;44.894;20.286;2023-09-30T03:31:22;21.70;;;15.10;;
40611;SDS011;26317;44.894;20.286;2023-09-30T03:34:19;20.95;;;15.40;;
40611;SDS011;26317;44.894;20.286;2023-09-30T03:36:55;23.70;;;15.48;;
40611;SDS011;26317;44.894;20.286;2023-09-30T03:39:26;21.00;;;16.67;;
40611;SDS011;26317;44.894;20.286;2023-09-30T03:42:16;28.00;;;16.83;;
40611;SDS011;26317;44.894;20.286;2023-09-30T03:45:02;23.55;;;16.33;;
40611;SDS011;26317;44.894;20.286;2023-09-30T03:47:39;21.02;;;15.40;;
40611;SDS011;26317;44.894;20.286;2023-09-30T03:50:26;25.70;;;16.50;;
40611;SDS011;26317;44.894;20.286;2023-09-30T03:53:06;24.60;;;17.42;;
40611;SDS011;26317;44.894;20.286;2023-09-30T03:55:54;24.10;;;16.98;;
40611;SDS011;26317;44.894;20.286;2023-09-30T03:58:37;35.47;;;17.88;;
40611;SDS011;26317;44.894;20.286;2023-09-30T04:01:14;26.95;;;17.85;;
40611;SDS011;26317;44.894;20.286;2023-09-30T04:03:57;24.45;;;16.25;;
40611;SDS011;26317;44.894;20.286;2023-09-30T04:09:12;24.60;;;15.48;;
40611;SDS011;26317;44.894;20.286;2023-09-30T04:11:51;20.38;;;15.20;;
40611;SDS011;26317;44.894;20.286;2023-09-30T04:14:30;26.60;;;16.17;;
40611;SDS011;26317;44.894;20.286;2023-09-30T04:17:18;23.25;;;15.07;;
40611;SDS011;26317;44.894;20.286;2023-09-30T04:19:51;23.83;;;16.13;;
40611;SDS011;26317;44.894;20.286;2023-09-30T04:22:53;27.75;;;15.40;;
40611;SDS011;26317;44.894;20.286;2023-09-30T04:25:27;22.70;;;16.17;;
40611;SDS011;26317;44.894;20.286;2023-09-30T04:28:29;20.95;;;14.90;;
40611;SDS011;26317;44.894;20.286;2023-09-30T04:31:05;22.35;;;16.38;;
40611;SDS011;26317;44.894;20.286;2023-09-30T04:33:48;22.20;;;15.55;;
40611;SDS011;26317;44.894;20.286;2023-09-30T04:36:32;18.90;;;14.13;;
40611;SDS011;26317;44.894;20.286;2023-09-30T04:39:14;21.15;;;15.63;;
40611;SDS011;26317;44.894;20.286;2023-09-30T04:41:48;24.90;;;15.25;;
40611;SDS011;26317;44.894;20.286;2023-09-30T04:44:24;23.58;;;15.88;;
40611;SDS011;26317;44.894;20.286;2023-09-30T04:47:01;26.42;;;15.82;;
40611;SDS011;26317;44.894;20.286;2023-09-30T04:49:40;18.85;;;15.85;;
40611;SDS011;26317;44.894;20.286;2023-09-30T04:54:59;20.25;;;14.75;;
40611;SDS011;26317;44.894;20.286;2023-09-30T04:57:37;23.77;;;16.23;;
40611;SDS011;26317;44.894;20.286;2023-09-30T05:00:17;27.77;;;16.15;;
40611;SDS011;26317;44.894;20.286;2023-09-30T05:02:54;21.77;;;16.48;;
40611;SDS011;26317;44.894;20.286;2023-09-30T05:05:35;20.30;;;15.70;;
40611;SDS011;26317;44.894;20.286;2023-09-30T05:08:09;18.65;;;15.40;;
40611;SDS011;26317;44.894;20.286;2023-09-30T05:10:49;21.58;;;15.77;;
40611;SDS011;26317;44.894;20.286;2023-09-30T05:13:25;21.10;;;16.33;;
40611;SDS011;26317;44.894;20.286;2023-09-30T05:16:08;27.63;;;16.10;;
40611;SDS011;26317;44.894;20.286;2023-09-30T05:18:52;41.28;;;17.85;;
40611;SDS011;26317;44.894;20.286;2023-09-30T05:21:29;24.10;;;15.68;;
40611;SDS011;26317;44.894;20.286;2023-09-30T05:24:04;20.60;;;15.52;;
40611;SDS011;26317;44.894;20.286;2023-09-30T05:29:29;46.20;;;18.48;;
40611;SDS011;26317;44.894;20.286;2023-09-30T05:32:10;49.22;;;20.38;;
40611;SDS011;26317;44.894;20.286;2023-09-30T05:34:55;36.63;;;23.00;;
40611;SDS011;26317;44.894;20.286;2023-09-30T05:37:33;45.40;;;21.92;;
40611;SDS011;26317;44.894;20.286;2023-09-30T05:40:13;35.95;;;20.95;;
40611;SDS011;26317;44.894;20.286;2023-09-30T05:43:11;30.40;;;19.15;;
40611;SDS011;26317;44.894;20.286;2023-09-30T05:45:47;29.75;;;18.80;;
40611;SDS011;26317;44.894;20.286;2023-09-30T05:48:28;28.13;;;18.80;;
40611;SDS011;26317;44.894;20.286;2023-09-30T05:51:07;24.95;;;16.75;;
40611;SDS011;26317;44.894;20.286;2023-09-30T05:53:54;30.27;;;17.45;;
40611;SDS011;26317;44.894;20.286;2023-09-30T05:56:28;26.10;;;18.30;;
40611;SDS011;26317;44.894;20.286;2023-09-30T05:59:08;27.20;;;17.75;;
40611;SDS011;26317;44.894;20.286;2023-09-30T06:01:52;22.40;;;17.10;;
40611;SDS011;26317;44.894;20.286;2023-09-30T06:04:26;26.35;;;17.60;;
40611;SDS011;26317;44.894;20.286;2023-09-30T06:07:08;22.00;;;16.30;;
40611;SDS011;26317;44.894;20.286;2023-09-30T06:09:54;21.70;;;16.83;;
40611;SDS011;26317;44.894;20.286;2023-09-30T06:12:37;22.80;;;16.10;;
40611;SDS011;26317;44.894;20.286;2023-09-30T06:15:23;28.00;;;17.15;;
40611;SDS011;26317;44.894;20.286;2023-09-30T06:17:59;18.35;;;15.13;;
40611;SDS011;26317;44.894;20.286;2023-09-30T06:20:42;20.45;;;15.93;;
40611;SDS011;26317;44.894;20.286;2023-09-30T06:23:29;23.15;;;15.85;;
40611;SDS011;26317;44.894;20.286;2023-09-30T06:26:06;26.13;;;14.82;;
40611;SDS011;26317;44.894;20.286;2023-09-30T06:28:45;20.35;;;14.02;;
40611;SDS011;26317;44.894;20.286;2023-09-30T06:31:27;20.65;;;14.30;;
40611;SDS011;26317;44.894;20.286;2023-09-30T06:34:03;28.80;;;14.95;;
40611;SDS011;26317;44.894;20.286;2023-09-30T06:36:42;17.92;;;13.60;;
40611;SDS011;26317;44.894;20.286;2023-09-30T06:39:22;23.95;;;15.30;;
40611;SDS011;26317;44.894;20.286;2023-09-30T06:42:04;18.27;;;13.20;;
40611;SDS011;26317;44.894;20.286;2023-09-30T06:44:41;24.48;;;14.88;;
40611;SDS011;26317;44.894;20.286;2023-09-30T06:50:14;23.73;;;14.30;;
40611;SDS011;26317;44.894;20.286;2023-09-30T06:52:57;22.25;;;15.13;;
40611;SDS011;26317;44.894;20.286;2023-09-30T06:55:33;22.58;;;14.38;;
40611;SDS011;26317;44.894;20.286;2023-09-30T06:58:09;22.70;;;14.18;;
40611;SDS011;26317;44.894;20.286;2023-09-30T07:00:56;21.40;;;15.38;;
40611;SDS011;26317;44.894;20.286;2023-09-30T07:03:34;21.30;;;14.15;;
40611;SDS011;26317;44.894;20.286;2023-09-30T07:06:21;25.70;;;14.73;;
40611;SDS011;26317;44.894;20.286;2023-09-30T07:09:04;23.42;;;15.00;;
40611;SDS011;26317;44.894;20.286;2023-09-30T07:11:37;21.05;;;14.57;;
40611;SDS011;26317;44.894;20.286;2023-09-30T07:14:14;22.85;;;14.88;;
40611;SDS011;26317;44.894;20.286;2023-09-30T07:16:49;22.90;;;14.57;;
40611;SDS011;26317;44.894;20.286;2023-09-30T07:19:31;21.95;;;15.18;;
40611;SDS011;26317;44.894;20.286;2023-09-30T07:22:08;20.15;;;13.82;;
40611;SDS011;26317;44.894;20.286;2023-09-30T07:25:09;18.63;;;15.65;;
40611;SDS011;26317;44.894;20.286;2023-09-30T07:27:48;23.20;;;15.18;;
40611;SDS011;26317;44.894;20.286;2023-09-30T07:30:23;17.75;;;14.52;;
40611;SDS011;26317;44.894;20.286;2023-09-30T07:32:59;24.55;;;14.68;;
40611;SDS011;26317;44.894;20.286;2023-09-30T07:35:44;16.45;;;13.82;;
40611;SDS011;26317;44.894;20.286;2023-09-30T07:38:20;19.35;;;12.98;;
40611;SDS011;26317;44.894;20.286;2023-09-30T07:41:00;19.63;;;13.38;;
40611;SDS011;26317;44.894;20.286;2023-09-30T07:43:33;17.40;;;11.60;;
40611;SDS011;26317;44.894;20.286;2023-09-30T07:46:05;15.15;;;12.38;;
40611;SDS011;26317;44.894;20.286;2023-09-30T07:48:40;14.93;;;12.32;;
40611;SDS011;26317;44.894;20.286;2023-09-30T07:51:29;20.15;;;13.15;;
40611;SDS011;26317;44.894;20.286;2023-09-30T07:54:06;20.65;;;12.52;;
40611;SDS011;26317;44.894;20.286;2023-09-30T07:56:58;16.67;;;11.65;;
40611;SDS011;26317;44.894;20.286;2023-09-30T07:59:36;23.52;;;13.02;;
40611;SDS011;26317;44.894;20.286;2023-09-30T08:02:11;19.25;;;12.32;;
40611;SDS011;26317;44.894;20.286;2023-09-30T08:04:50;15.38;;;10.63;;
40611;SDS011;26317;44.894;20.286;2023-09-30T08:07:40;22.63;;;14.57;;
40611;SDS011;26317;44.894;20.286;2023-09-30T08:10:22;20.80;;;12.50;;
40611;SDS011;26317;44.894;20.286;2023-09-30T08:13:05;16.80;;;11.25;;
40611;SDS011;26317;44.894;20.286;2023-09-30T08:15:39;20.40;;;11.65;;
40611;SDS011;26317;44.894;20.286;2023-09-30T08:18:18;19.17;;;12.55;;
40611;SDS011;26317;44.894;20.286;2023-09-30T08:20:56;21.80;;;12.65;;
40611;SDS011;26317;44.894;20.286;2023-09-30T08:23:50;21.27;;;12.18;;
40611;SDS011;26317;44.894;20.286;2023-09-30T08:26:29;22.17;;;12.63;;
40611;SDS011;26317;44.894;20.286;2023-09-30T08:29:08;24.13;;;13.40;;
40611;SDS011;26317;44.894;20.286;2023-09-30T08:31:55;20.58;;;12.45;;
40611;SDS011;26317;44.894;20.286;2023-09-30T08:34:32;19.80;;;12.48;;
40611;SDS011;26317;44.894;20.286;2023-09-30T08:37:09;23.35;;;12.88;;
40611;SDS011;26317;44.894;20.286;2023-09-30T08:39:50;26.65;;;13.38;;
40611;SDS011;26317;44.894;20.286;2023-09-30T08:42:39;21.88;;;12.93;;
40611;SDS011;26317;44.894;20.286;2023-09-30T08:45:13;23.27;;;13.75;;
40611;SDS011;26317;44.894;20.286;2023-09-30T08:47:59;17.75;;;13.15;;
40611;SDS011;26317;44.894;20.286;2023-09-30T08:50:37;25.58;;;13.77;;
40611;SDS011;26317;44.894;20.286;2023-09-30T08:53:18;17.17;;;11.85;;
40611;SDS011;26317;44.894;20.286;2023-09-30T08:56:12;21.48;;;12.52;;
40611;SDS011;26317;44.894;20.286;2023-09-30T08:59:03;22.83;;;14.00;;
40611;SDS011;26317;44.894;20.286;2023-09-30T09:01:39;23.70;;;11.82;;
40611;SDS011;26317;44.894;20.286;2023-09-30T09:04:18;21.23;;;11.88;;
40611;SDS011;26317;44.894;20.286;2023-09-30T09:07:02;17.08;;;10.90;;
40611;SDS011;26317;44.894;20.286;2023-09-30T09:09:38;22.98;;;11.45;;
40611;SDS011;26317;44.894;20.286;2023-09-30T09:12:24;19.27;;;12.68;;
40611;SDS011;26317;44.894;20.286;2023-09-30T09:14:59;23.70;;;12.32;;
40611;SDS011;26317;44.894;20.286;2023-09-30T09:17:41;21.25;;;10.82;;
40611;SDS011;26317;44.894;20.286;2023-09-30T09:20:25;16.67;;;11.70;;
40611;SDS011;26317;44.894;20.286;2023-09-30T09:23:04;19.63;;;10.25;;
40611;SDS011;26317;44.894;20.286;2023-09-30T09:26:25;16.10;;;11.35;;
40611;SDS011;26317;44.894;20.286;2023-09-30T09:29:14;21.30;;;9.68;;
40611;SDS011;26317;44.894;20.286;2023-09-30T09:32:08;10.93;;;8.43;;
40611;SDS011;26317;44.894;20.286;2023-09-30T09:34:55;11.52;;;8.43;;
40611;SDS011;26317;44.894;20.286;2023-09-30T09:37:40;29.63;;;17.95;;
40611;SDS011;26317;44.894;20.286;2023-09-30T09:40:25;20.55;;;11.73;;
40611;SDS011;26317;44.894;20.286;2023-09-30T09:43:05;18.98;;;12.80;;
40611;SDS011;26317;44.894;20.286;2023-09-30T09:46:11;12.80;;;8.60;;
40611;SDS011;26317;44.894;20.286;2023-09-30T09:48:58;15.27;;;9.93;;
40611;SDS011;26317;44.894;20.286;2023-09-30T09:51:39;13.93;;;8.75;;
40611;SDS011;26317;44.894;20.286;2023-09-30T09:57:10;8.38;;;7.03;;
40611;SDS011;26317;44.894;20.286;2023-09-30T09:59:58;10.48;;;7.60;;
40611;SDS011;26317;44.894;20.286;2023-09-30T10:02:54;12.65;;;6.85;;
40611;SDS011;26317;44.894;20.286;2023-09-30T10:05:31;14.82;;;7.38;;
40611;SDS011;26317;44.894;20.286;2023-09-30T10:08:07;15.20;;;8.25;;
40611;SDS011;26317;44.894;20.286;2023-09-30T10:10:50;14.73;;;7.22;;
40611;SDS011;26317;44.894;20.286;2023-09-30T10:16:46;15.00;;;7.30;;
40611;SDS011;26317;44.894;20.286;2023-09-30T10:19:41;15.02;;;7.03;;
40611;SDS011;26317;44.894;20.286;2023-09-30T10:22:49;8.93;;;6.32;;
40611;SDS011;26317;44.894;20.286;2023-09-30T10:26:26;8.70;;;6.65;;
40611;SDS011;26317;44.894;20.286;2023-09-30T10:29:10;10.10;;;6.75;;
40611;SDS011;26317;44.894;20.286;2023-09-30T10:31:56;12.73;;;8.25;;
40611;SDS011;26317;44.894;20.286;2023-09-30T10:34:35;7.60;;;5.88;;
40611;SDS011;26317;44.894;20.286;2023-09-30T10:37:22;9.57;;;7.55;;
40611;SDS011;26317;44.894;20.286;2023-09-30T10:40:02;7.68;;;6.88;;
40611;SDS011;26317;44.894;20.286;2023-09-30T10:42:50;9.80;;;6.28;;
40611;SDS011;26317;44.894;20.286;2023-09-30T10:51:21;13.98;;;9.52;;
40611;SDS011;26317;44.894;20.286;2023-09-30T10:53:54;11.98;;;7.38;;
40611;SDS011;26317;44.894;20.286;2023-09-30T10:56:32;10.40;;;6.80;;
40611;SDS011;26317;44.894;20.286;2023-09-30T10:59:05;8.55;;;5.88;;
40611;SDS011;26317;44.894;20.286;2023-09-30T11:01:37;10.57;;;6.18;;
40611;SDS011;26317;44.894;20.286;2023-09-30T11:04:19;11.77;;;6.15;;
40611;SDS011;26317;44.894;20.286;2023-09-30T11:07:10;11.38;;;5.63;;
40611;SDS011;26317;44.894;20.286;2023-09-30T11:09:42;9.82;;;6.05;;
40611;SDS011;26317;44.894;20.286;2023-09-30T11:12:17;10.68;;;6.60;;
40611;SDS011;26317;44.894;20.286;2023-09-30T11:15:02;9.93;;;6.18;;
40611;SDS011;26317;44.894;20.286;2023-09-30T11:17:39;10.85;;;6.35;;
40611;SDS011;26317;44.894;20.286;2023-09-30T11:20:20;9.05;;;6.35;;
40611;SDS011;26317;44.894;20.286;2023-09-30T11:23:04;12.05;;;7.18;;
40611;SDS011;26317;44.894;20.286;2023-09-30T11:25:45;11.05;;;7.45;;
40611;SDS011;26317;44.894;20.286;2023-09-30T11:28:21;12.93;;;7.78;;
40611;SDS011;26317;44.894;20.286;2023-09-30T11:31:17;10.55;;;7.47;;
40611;SDS011;26317;44.894;20.286;2023-09-30T11:33:54;7.22;;;5.95;;
40611;SDS011;26317;44.894;20.286;2023-09-30T11:36:33;10.45;;;6.05;;
40611;SDS011;26317;44.894;20.286;2023-09-30T11:39:30;9.35;;;6.07;;
40611;SDS011;26317;44.894;20.286;2023-09-30T11:42:15;6.43;;;5.32;;
40611;SDS011;26317;44.894;20.286;2023-09-30T11:44:53;6.40;;;4.88;;
40611;SDS011;26317;44.894;20.286;2023-09-30T11:47:32;10.82;;;5.95;;
40611;SDS011;26317;44.894;20.286;2023-09-30T11:50:07;9.73;;;5.25;;
40611;SDS011;26317;44.894;20.286;2023-09-30T11:52:49;8.88;;;4.18;;
40611;SDS011;26317;44.894;20.286;2023-09-30T11:55:41;8.65;;;5.00;;
40611;SDS011;26317;44.894;20.286;2023-09-30T11:58:18;5.00;;;3.90;;
40611;SDS011;26317;44.894;20.286;2023-09-30T12:00:53;9.35;;;4.63;;
40611;SDS011;26317;44.894;20.286;2023-09-30T12:03:27;6.95;;;4.40;;
40611;SDS011;26317;44.894;20.286;2023-09-30T12:06:23;7.57;;;4.88;;
40611;SDS011;26317;44.894;20.286;2023-09-30T12:09:13;6.00;;;5.22;;
40611;SDS011;26317;44.894;20.286;2023-09-30T12:11:54;8.35;;;5.18;;
40611;SDS011;26317;44.894;20.286;2023-09-30T12:14:31;7.25;;;5.10;;
40611;SDS011;26317;44.894;20.286;2023-09-30T12:17:09;9.93;;;5.38;;
40611;SDS011;26317;44.894;20.286;2023-09-30T12:19:55;7.63;;;5.07;;
40611;SDS011;26317;44.894;20.286;2023-09-30T12:22:34;6.03;;;4.88;;
40611;SDS011;26317;44.894;20.286;2023-09-30T12:25:07;5.95;;;4.35;;
40611;SDS011;26317;44.894;20.286;2023-09-30T12:27:54;8.35;;;5.20;;
40611;SDS011;26317;44.894;20.286;2023-09-30T12:30:32;10.52;;;4.53;;
40611;SDS011;26317;44.894;20.286;2023-09-30T12:33:10;4.65;;;4.18;;
40611;SDS011;26317;44.894;20.286;2023-09-30T12:35:45;19.70;;;15.32;;
40611;SDS011;26317;44.894;20.286;2023-09-30T12:38:18;6.55;;;4.95;;
40611;SDS011;26317;44.894;20.286;2023-09-30T12:40:51;12.25;;;4.75;;
40611;SDS011;26317;44.894;20.286;2023-09-30T12:43:43;6.53;;;4.97;;
40611;SDS011;26317;44.894;20.286;2023-09-30T12:46:15;5.82;;;4.93;;
40611;SDS011;26317;44.894;20.286;2023-09-30T12:48:51;6.10;;;5.25;;
40611;SDS011;26317;44.894;20.286;2023-09-30T12:51:29;9.68;;;4.40;;
40611;SDS011;26317;44.894;20.286;2023-09-30T12:54:08;9.88;;;5.05;;
40611;SDS011;26317;44.894;20.286;2023-09-30T12:56:59;12.85;;;5.85;;
40611;SDS011;26317;44.894;20.286;2023-09-30T12:59:44;10.60;;;5.03;;
40611;SDS011;26317;44.894;20.286;2023-09-30T13:02:24;8.70;;;5.72;;
40611;SDS011;26317;44.894;20.286;2023-09-30T13:05:04;5.78;;;4.65;;
40611;SDS011;26317;44.894;20.286;2023-09-30T13:07:38;8.27;;;5.45;;
40611;SDS011;26317;44.894;20.286;2023-09-30T13:10:16;5.95;;;4.72;;
40611;SDS011;26317;44.894;20.286;2023-09-30T13:12:56;8.43;;;5.05;;
40611;SDS011;26317;44.894;20.286;2023-09-30T13:15:38;11.25;;;4.82;;
40611;SDS011;26317;44.894;20.286;2023-09-30T13:18:21;6.78;;;4.18;;
40611;SDS011;26317;44.894;20.286;2023-09-30T13:20:55;5.70;;;4.55;;
40611;SDS011;26317;44.894;20.286;2023-09-30T13:23:32;11.18;;;5.50;;
40611;SDS011;26317;44.894;20.286;2023-09-30T13:26:12;6.97;;;4.25;;
40611;SDS011;26317;44.894;20.286;2023-09-30T13:28:52;6.68;;;4.57;;
40611;SDS011;26317;44.894;20.286;2023-09-30T13:31:42;5.90;;;4.40;;
40611;SDS011;26317;44.894;20.286;2023-09-30T13:34:19;13.20;;;4.57;;
40611;SDS011;26317;44.894;20.286;2023-09-30T13:36:59;8.48;;;5.25;;
40611;SDS011;26317;44.894;20.286;2023-09-30T13:39:46;6.57;;;5.15;;
40611;SDS011;26317;44.894;20.286;2023-09-30T13:42:20;13.07;;;5.80;;
40611;SDS011;26317;44.894;20.286;2023-09-30T13:44:58;10.50;;;5.75;;
40611;SDS011;26317;44.894;20.286;2023-09-30T13:47:48;7.55;;;6.72;;
40611;SDS011;26317;44.894;20.286;2023-09-30T13:50:31;10.35;;;6.72;;
40611;SDS011;26317;44.894;20.286;2023-09-30T13:53:04;15.60;;;7.05;;
40611;SDS011;26317;44.894;20.286;2023-09-30T13:55:42;11.43;;;5.72;;
40611;SDS011;26317;44.894;20.286;2023-09-30T13:58:22;6.32;;;4.90;;
40611;SDS011;26317;44.894;20.286;2023-09-30T14:01:05;10.07;;;6.70;;
40611;SDS011;26317;44.894;20.286;2023-09-30T14:03:44;8.02;;;6.13;;
40611;SDS011;26317;44.894;20.286;2023-09-30T14:06:29;10.05;;;6.22;;
40611;SDS011;26317;44.894;20.286;2023-09-30T14:09:10;10.15;;;5.25;;
40611;SDS011;26317;44.894;20.286;2023-09-30T14:12:02;12.88;;;7.60;;
40611;SDS011;26317;44.894;20.286;2023-09-30T14:14:38;13.32;;;7.28;;
40611;SDS011;26317;44.894;20.286;2023-09-30T14:17:22;12.90;;;6.97;;
40611;SDS011;26317;44.894;20.286;2023-09-30T14:20:01;16.23;;;9.77;;
40611;SDS011;26317;44.894;20.286;2023-09-30T14:22:42;15.80;;;8.88;;
40611;SDS011;26317;44.894;20.286;2023-09-30T14:25:31;10.30;;;7.88;;
40611;SDS011;26317;44.894;20.286;2023-09-30T14:28:08;15.68;;;9.25;;
40611;SDS011;26317;44.894;20.286;2023-09-30T14:30:49;13.60;;;8.13;;
40611;SDS011;26317;44.894;20.286;2023-09-30T14:33:24;8.35;;;5.65;;
40611;SDS011;26317;44.894;20.286;2023-09-30T14:36:14;16.00;;;6.78;;
40611;SDS011;26317;44.894;20.286;2023-09-30T14:38:48;8.50;;;6.22;;
40611;SDS011;26317;44.894;20.286;2023-09-30T14:41:39;13.25;;;6.90;;
40611;SDS011;26317;44.894;20.286;2023-09-30T14:44:10;11.88;;;7.03;;
40611;SDS011;26317;44.894;20.286;2023-09-30T14:46:44;10.50;;;6.40;;
40611;SDS011;26317;44.894;20.286;2023-09-30T14:49:30;12.02;;;6.30;;
40611;SDS011;26317;44.894;20.286;2023-09-30T14:52:16;7.40;;;5.35;;
40611;SDS011;26317;44.894;20.286;2023-09-30T14:54:55;11.45;;;5.35;;
40611;SDS011;26317;44.894;20.286;2023-09-30T14:57:26;8.27;;;6.40;;
40611;SDS011;26317;44.894;20.286;2023-09-30T15:02:57;7.60;;;6.13;;
40611;SDS011;26317;44.894;20.286;2023-09-30T15:05:37;12.77;;;7.68;;
40611;SDS011;26317;44.894;20.286;2023-09-30T15:08:27;12.40;;;6.72;;
40611;SDS011;26317;44.894;20.286;2023-09-30T15:11:04;11.80;;;6.65;;
40611;SDS011;26317;44.894;20.286;2023-09-30T15:13:48;15.55;;;9.02;;
40611;SDS011;26317;44.894;20.286;2023-09-30T15:16:28;12.43;;;7.18;;
40611;SDS011;26317;44.894;20.286;2023-09-30T15:19:07;10.82;;;7.30;;
40611;SDS011;26317;44.894;20.286;2023-09-30T15:21:42;13.07;;;6.60;;
40611;SDS011;26317;44.894;20.286;2023-09-30T15:24:39;11.73;;;6.80;;
40611;SDS011;26317;44.894;20.286;2023-09-30T15:27:25;10.68;;;5.97;;
40611;SDS011;26317;44.894;20.286;2023-09-30T15:29:57;14.50;;;6.72;;
40611;SDS011;26317;44.894;20.286;2023-09-30T15:32:33;10.43;;;5.95;;
40611;SDS011;26317;44.894;20.286;2023-09-30T15:35:19;6.47;;;5.15;;
40611;SDS011;26317;44.894;20.286;2023-09-30T15:38:04;9.77;;;5.72;;
40611;SDS011;26317;44.894;20.286;2023-09-30T15:40:51;9.63;;;5.47;;
40611;SDS011;26317;44.894;20.286;2023-09-30T15:43:34;14.98;;;5.72;;
40611;SDS011;26317;44.894;20.286;2023-09-30T15:46:09;14.00;;;7.05;;
40611;SDS011;26317;44.894;20.286;2023-09-30T15:49:02;18.83;;;10.10;;
40611;SDS011;26317;44.894;20.286;2023-09-30T15:51:41;15.82;;;10.15;;
40611;SDS011;26317;44.894;20.286;2023-09-30T15:54:16;12.70;;;9.77;;
40611;SDS011;26317;44.894;20.286;2023-09-30T15:56:50;12.13;;;8.00;;
40611;SDS011;26317;44.894;20.286;2023-09-30T15:59:30;23.17;;;13.05;;
40611;SDS011;26317;44.894;20.286;2023-09-30T16:02:06;18.13;;;11.95;;
40611;SDS011;26317;44.894;20.286;2023-09-30T16:04:43;21.77;;;11.20;;
40611;SDS011;26317;44.894;20.286;2023-09-30T16:07:19;17.10;;;9.35;;
40611;SDS011;26317;44.894;20.286;2023-09-30T16:09:59;20.08;;;8.80;;